sensor_id;sensor_type;location;lat;lon;timestamp;P1;P2;P0
47705;PMS5003;33471;52.104;1.318;2023-02-24T00:00:09;32;27;
47705;PMS5003;33471;52.104;1.318;2023-02-24T00:02:38;30;26;
47705;PMS5003;33471;52.104;1.318;2023-02-24T00:05:06;22;22;
47705;PMS5003;33471;52.104;1.318;2023-02-24T00:07:35;32;31;
47705;PMS5003;33471;52.104;1.318;2023-02-24T00:10:02;27;27;
47705;PMS5003;33471;52.104;1.318;2023-02-24T00:12:29;20;20;
47705;PMS5003;33471;52.104;1.318;2023-02-24T00:14:57;22;21;
47705;PMS5003;33471;52.104;1.318;2023-02-24T00:17:24;31;27;
47705;PMS5003;33471;52.104;1.318;2023-02-24T00:19:51;24;24;
47705;PMS5003;33471;52.104;1.318;2023-02-24T00:22:18;19;18;
47705;PMS5003;33471;52.104;1.318;2023-02-24T00:24:45;23;20;
47705;PMS5003;33471;52.104;1.318;2023-02-24T00:27:13;21;21;
47705;PMS5003;33471;52.104;1.318;2023-02-24T00:29:40;18;15;
47705;PMS5003;33471;52.104;1.318;2023-02-24T00:32:11;16;16;
47705;PMS5003;33471;52.104;1.318;2023-02-24T00:34:38;27;26;
47705;PMS5003;33471;52.104;1.318;2023-02-24T00:37:05;17;17;
47705;PMS5003;33471;52.104;1.318;2023-02-24T00:39:34;19;17;
47705;PMS5003;33471;52.104;1.318;2023-02-24T00:42:03;12;10;
47705;PMS5003;33471;52.104;1.318;2023-02-24T00:44:31;11;11;
47705;PMS5003;33471;52.104;1.318;2023-02-24T00:47:00;15;12;
47705;PMS5003;33471;52.104;1.318;2023-02-24T00:49:28;9;8;
47705;PMS5003;33471;52.104;1.318;2023-02-24T00:51:56;14;11;
47705;PMS5003;33471;52.104;1.318;2023-02-24T00:54:24;11;11;
47705;PMS5003;33471;52.104;1.318;2023-02-24T00:56:52;11;11;
47705;PMS5003;33471;52.104;1.318;2023-02-24T00:59:20;11;11;
47705;PMS5003;33471;52.104;1.318;2023-02-24T01:01:47;16;14;
47705;PMS5003;33471;52.104;1.318;2023-02-24T01:04:16;11;11;
47705;PMS5003;33471;52.104;1.318;2023-02-24T01:06:45;10;10;
47705;PMS5003;33471;52.104;1.318;2023-02-24T01:09:14;9;9;
47705;PMS5003;33471;52.104;1.318;2023-02-24T01:11:43;9;9;
47705;PMS5003;33471;52.104;1.318;2023-02-24T01:14:13;10;10;
47705;PMS5003;33471;52.104;1.318;2023-02-24T01:16:42;9;9;
47705;PMS5003;33471;52.104;1.318;2023-02-24T01:19:10;12;11;
47705;PMS5003;33471;52.104;1.318;2023-02-24T01:21:38;9;9;
47705;PMS5003;33471;52.104;1.318;2023-02-24T01:24:05;11;11;
47705;PMS5003;33471;52.104;1.318;2023-02-24T01:26:32;9;9;
47705;PMS5003;33471;52.104;1.318;2023-02-24T01:28:59;13;13;
47705;PMS5003;33471;52.104;1.318;2023-02-24T01:31:27;12;12;
47705;PMS5003;33471;52.104;1.318;2023-02-24T01:33:54;13;11;
47705;PMS5003;33471;52.104;1.318;2023-02-24T01:36:21;9;8;
47705;PMS5003;33471;52.104;1.318;2023-02-24T01:38:51;10;10;
47705;PMS5003;33471;52.104;1.318;2023-02-24T01:41:19;12;10;
47705;PMS5003;33471;52.104;1.318;2023-02-24T01:43:54;11;9;
47705;PMS5003;33471;52.104;1.318;2023-02-24T01:46:23;10;10;
47705;PMS5003;33471;52.104;1.318;2023-02-24T01:48:52;12;12;
47705;PMS5003;33471;52.104;1.318;2023-02-24T01:51:23;19;19;
47705;PMS5003;33471;52.104;1.318;2023-02-24T01:53:55;11;11;
47705;PMS5003;33471;52.104;1.318;2023-02-24T01:56:22;12;10;
47705;PMS5003;33471;52.104;1.318;2023-02-24T01:58:49;10;10;
47705;PMS5003;33471;52.104;1.318;2023-02-24T02:01:17;13;12;
47705;PMS5003;33471;52.104;1.318;2023-02-24T02:03:45;14;13;
47705;PMS5003;33471;52.104;1.318;2023-02-24T02:06:12;14;12;
47705;PMS5003;33471;52.104;1.318;2023-02-24T02:08:41;14;11;
47705;PMS5003;33471;52.104;1.318;2023-02-24T02:11:10;13;13;
47705;PMS5003;33471;52.104;1.318;2023-02-24T02:13:40;16;15;
47705;PMS5003;33471;52.104;1.318;2023-02-24T02:16:14;10;10;
47705;PMS5003;33471;52.104;1.318;2023-02-24T02:19:00;10;10;
47705;PMS5003;33471;52.104;1.318;2023-02-24T02:21:58;14;14;
47705;PMS5003;33471;52.104;1.318;2023-02-24T02:24:34;12;11;
47705;PMS5003;33471;52.104;1.318;2023-02-24T02:27:18;10;9;
47705;PMS5003;33471;52.104;1.318;2023-02-24T02:29:59;9;9;
47705;PMS5003;33471;52.104;1.318;2023-02-24T02:30:38;9;9;
47705;PMS5003;33471;52.104;1.318;2023-02-24T02:31:18;9;9;
47705;PMS5003;33471;52.104;1.318;2023-02-24T02:34:03;14;14;
47705;PMS5003;33471;52.104;1.318;2023-02-24T02:36:40;14;14;
47705;PMS5003;33471;52.104;1.318;2023-02-24T02:39:21;12;12;
47705;PMS5003;33471;52.104;1.318;2023-02-24T02:42:05;14;14;
47705;PMS5003;33471;52.104;1.318;2023-02-24T02:44:44;11;11;
47705;PMS5003;33471;52.104;1.318;2023-02-24T02:47:18;13;12;
47705;PMS5003;33471;52.104;1.318;2023-02-24T02:49:50;17;17;
47705;PMS5003;33471;52.104;1.318;2023-02-24T02:52:25;16;13;
47705;PMS5003;33471;52.104;1.318;2023-02-24T02:54:55;11;11;
47705;PMS5003;33471;52.104;1.318;2023-02-24T02:57:29;9;9;
47705;PMS5003;33471;52.104;1.318;2023-02-24T02:59:58;20;19;
47705;PMS5003;33471;52.104;1.318;2023-02-24T03:02:29;11;10;
47705;PMS5003;33471;52.104;1.318;2023-02-24T03:04:59;11;10;
47705;PMS5003;33471;52.104;1.318;2023-02-24T03:07:29;10;10;
47705;PMS5003;33471;52.104;1.318;2023-02-24T03:10:03;8;8;
47705;PMS5003;33471;52.104;1.318;2023-02-24T03:12:34;7;7;
47705;PMS5003;33471;52.104;1.318;2023-02-24T03:15:05;11;10;
47705;PMS5003;33471;52.104;1.318;2023-02-24T03:17:36;10;10;
47705;PMS5003;33471;52.104;1.318;2023-02-24T03:20:12;11;11;
47705;PMS5003;33471;52.104;1.318;2023-02-24T03:22:46;11;9;
47705;PMS5003;33471;52.104;1.318;2023-02-24T03:25:19;11;10;
47705;PMS5003;33471;52.104;1.318;2023-02-24T03:27:51;9;9;
47705;PMS5003;33471;52.104;1.318;2023-02-24T03:30:27;6;6;
47705;PMS5003;33471;52.104;1.318;2023-02-24T03:33:06;9;7;
47705;PMS5003;33471;52.104;1.318;2023-02-24T03:35:40;8;7;
47705;PMS5003;33471;52.104;1.318;2023-02-24T03:38:08;7;7;
47705;PMS5003;33471;52.104;1.318;2023-02-24T03:40:36;7;7;
47705;PMS5003;33471;52.104;1.318;2023-02-24T03:43:06;9;8;
47705;PMS5003;33471;52.104;1.318;2023-02-24T03:45:39;10;10;
47705;PMS5003;33471;52.104;1.318;2023-02-24T03:48:07;8;7;
47705;PMS5003;33471;52.104;1.318;2023-02-24T03:50:36;10;10;
47705;PMS5003;33471;52.104;1.318;2023-02-24T03:53:07;11;6;
47705;PMS5003;33471;52.104;1.318;2023-02-24T03:55:51;8;7;
47705;PMS5003;33471;52.104;1.318;2023-02-24T03:58:27;7;6;
47705;PMS5003;33471;52.104;1.318;2023-02-24T04:01:07;9;9;
47705;PMS5003;33471;52.104;1.318;2023-02-24T04:03:41;11;9;
47705;PMS5003;33471;52.104;1.318;2023-02-24T04:06:17;8;6;
47705;PMS5003;33471;52.104;1.318;2023-02-24T04:08:48;9;9;
47705;PMS5003;33471;52.104;1.318;2023-02-24T04:11:22;7;7;
47705;PMS5003;33471;52.104;1.318;2023-02-24T04:13:53;9;9;
47705;PMS5003;33471;52.104;1.318;2023-02-24T04:16:28;17;16;
47705;PMS5003;33471;52.104;1.318;2023-02-24T04:19:02;8;8;
47705;PMS5003;33471;52.104;1.318;2023-02-24T04:21:34;12;12;
47705;PMS5003;33471;52.104;1.318;2023-02-24T04:24:04;7;7;
47705;PMS5003;33471;52.104;1.318;2023-02-24T04:26:34;14;12;
47705;PMS5003;33471;52.104;1.318;2023-02-24T04:29:03;15;14;
47705;PMS5003;33471;52.104;1.318;2023-02-24T04:31:30;15;10;
47705;PMS5003;33471;52.104;1.318;2023-02-24T04:33:59;9;9;
47705;PMS5003;33471;52.104;1.318;2023-02-24T04:36:26;9;9;
47705;PMS5003;33471;52.104;1.318;2023-02-24T04:38:53;8;8;
47705;PMS5003;33471;52.104;1.318;2023-02-24T04:41:20;13;11;
47705;PMS5003;33471;52.104;1.318;2023-02-24T04:43:47;9;9;
47705;PMS5003;33471;52.104;1.318;2023-02-24T04:46:15;9;9;
47705;PMS5003;33471;52.104;1.318;2023-02-24T04:48:43;7;7;
47705;PMS5003;33471;52.104;1.318;2023-02-24T04:51:10;11;10;
47705;PMS5003;33471;52.104;1.318;2023-02-24T04:53:38;9;9;
47705;PMS5003;33471;52.104;1.318;2023-02-24T04:56:06;11;11;
47705;PMS5003;33471;52.104;1.318;2023-02-24T04:58:34;9;7;
47705;PMS5003;33471;52.104;1.318;2023-02-24T05:01:05;12;12;
47705;PMS5003;33471;52.104;1.318;2023-02-24T05:03:34;14;14;
47705;PMS5003;33471;52.104;1.318;2023-02-24T05:06:02;9;9;
47705;PMS5003;33471;52.104;1.318;2023-02-24T05:08:29;8;8;
47705;PMS5003;33471;52.104;1.318;2023-02-24T05:10:57;11;9;
47705;PMS5003;33471;52.104;1.318;2023-02-24T05:13:25;11;9;
47705;PMS5003;33471;52.104;1.318;2023-02-24T05:15:54;19;15;
47705;PMS5003;33471;52.104;1.318;2023-02-24T05:18:23;12;12;
47705;PMS5003;33471;52.104;1.318;2023-02-24T05:20:54;9;9;
47705;PMS5003;33471;52.104;1.318;2023-02-24T05:23:23;12;11;
47705;PMS5003;33471;52.104;1.318;2023-02-24T05:25:51;12;11;
47705;PMS5003;33471;52.104;1.318;2023-02-24T05:28:19;10;9;
47705;PMS5003;33471;52.104;1.318;2023-02-24T05:30:46;10;9;
47705;PMS5003;33471;52.104;1.318;2023-02-24T05:33:13;12;11;
47705;PMS5003;33471;52.104;1.318;2023-02-24T05:35:40;13;13;
47705;PMS5003;33471;52.104;1.318;2023-02-24T05:38:07;11;11;
47705;PMS5003;33471;52.104;1.318;2023-02-24T05:40:35;15;13;
47705;PMS5003;33471;52.104;1.318;2023-02-24T05:43:02;15;15;
47705;PMS5003;33471;52.104;1.318;2023-02-24T05:45:30;12;12;
47705;PMS5003;33471;52.104;1.318;2023-02-24T05:47:58;12;11;
47705;PMS5003;33471;52.104;1.318;2023-02-24T05:50:25;17;17;
47705;PMS5003;33471;52.104;1.318;2023-02-24T05:52:52;13;13;
47705;PMS5003;33471;52.104;1.318;2023-02-24T05:55:20;16;16;
47705;PMS5003;33471;52.104;1.318;2023-02-24T05:57:47;17;15;
47705;PMS5003;33471;52.104;1.318;2023-02-24T06:00:14;15;15;
47705;PMS5003;33471;52.104;1.318;2023-02-24T06:02:42;16;16;
47705;PMS5003;33471;52.104;1.318;2023-02-24T06:05:10;12;12;
47705;PMS5003;33471;52.104;1.318;2023-02-24T06:07:37;15;15;
47705;PMS5003;33471;52.104;1.318;2023-02-24T06:10:04;16;14;
47705;PMS5003;33471;52.104;1.318;2023-02-24T06:12:33;17;17;
47705;PMS5003;33471;52.104;1.318;2023-02-24T06:15:01;14;13;
47705;PMS5003;33471;52.104;1.318;2023-02-24T06:17:28;18;17;
47705;PMS5003;33471;52.104;1.318;2023-02-24T06:19:55;15;15;
47705;PMS5003;33471;52.104;1.318;2023-02-24T06:22:23;17;17;
47705;PMS5003;33471;52.104;1.318;2023-02-24T06:24:52;13;13;
47705;PMS5003;33471;52.104;1.318;2023-02-24T06:27:20;15;13;
47705;PMS5003;33471;52.104;1.318;2023-02-24T06:29:48;15;14;
47705;PMS5003;33471;52.104;1.318;2023-02-24T06:32:17;15;15;
47705;PMS5003;33471;52.104;1.318;2023-02-24T06:34:46;18;18;
47705;PMS5003;33471;52.104;1.318;2023-02-24T06:37:14;20;18;
47705;PMS5003;33471;52.104;1.318;2023-02-24T06:39:42;14;14;
47705;PMS5003;33471;52.104;1.318;2023-02-24T06:42:09;14;14;
47705;PMS5003;33471;52.104;1.318;2023-02-24T06:44:38;24;24;
47705;PMS5003;33471;52.104;1.318;2023-02-24T06:47:07;20;20;
47705;PMS5003;33471;52.104;1.318;2023-02-24T06:49:36;21;20;
47705;PMS5003;33471;52.104;1.318;2023-02-24T06:52:03;17;16;
47705;PMS5003;33471;52.104;1.318;2023-02-24T06:54:31;21;21;
47705;PMS5003;33471;52.104;1.318;2023-02-24T06:56:59;20;20;
47705;PMS5003;33471;52.104;1.318;2023-02-24T06:59:26;24;24;
47705;PMS5003;33471;52.104;1.318;2023-02-24T07:01:54;96;89;
47705;PMS5003;33471;52.104;1.318;2023-02-24T07:04:23;112;105;
47705;PMS5003;33471;52.104;1.318;2023-02-24T07:06:51;83;75;
47705;PMS5003;33471;52.104;1.318;2023-02-24T07:09:20;42;39;
47705;PMS5003;33471;52.104;1.318;2023-02-24T07:11:51;73;66;
47705;PMS5003;33471;52.104;1.318;2023-02-24T07:14:20;43;41;
47705;PMS5003;33471;52.104;1.318;2023-02-24T07:16:48;33;30;
47705;PMS5003;33471;52.104;1.318;2023-02-24T07:19:17;36;36;
47705;PMS5003;33471;52.104;1.318;2023-02-24T07:21:46;31;31;
47705;PMS5003;33471;52.104;1.318;2023-02-24T07:24:15;30;29;
47705;PMS5003;33471;52.104;1.318;2023-02-24T07:26:45;28;27;
47705;PMS5003;33471;52.104;1.318;2023-02-24T07:29:12;25;25;
47705;PMS5003;33471;52.104;1.318;2023-02-24T07:31:39;26;26;
47705;PMS5003;33471;52.104;1.318;2023-02-24T07:34:06;33;30;
47705;PMS5003;33471;52.104;1.318;2023-02-24T07:36:33;25;25;
47705;PMS5003;33471;52.104;1.318;2023-02-24T07:39:01;31;28;
47705;PMS5003;33471;52.104;1.318;2023-02-24T07:41:29;24;22;
47705;PMS5003;33471;52.104;1.318;2023-02-24T07:43:56;23;22;
47705;PMS5003;33471;52.104;1.318;2023-02-24T07:46:24;27;26;
47705;PMS5003;33471;52.104;1.318;2023-02-24T07:48:53;23;17;
47705;PMS5003;33471;52.104;1.318;2023-02-24T07:51:22;28;26;
47705;PMS5003;33471;52.104;1.318;2023-02-24T07:53:52;29;29;
47705;PMS5003;33471;52.104;1.318;2023-02-24T07:56:21;27;27;
47705;PMS5003;33471;52.104;1.318;2023-02-24T07:58:49;28;27;
47705;PMS5003;33471;52.104;1.318;2023-02-24T08:01:17;29;28;
47705;PMS5003;33471;52.104;1.318;2023-02-24T08:03:45;26;26;
47705;PMS5003;33471;52.104;1.318;2023-02-24T08:06:12;25;24;
47705;PMS5003;33471;52.104;1.318;2023-02-24T08:08:40;26;26;
47705;PMS5003;33471;52.104;1.318;2023-02-24T08:11:08;28;26;
47705;PMS5003;33471;52.104;1.318;2023-02-24T08:13:35;20;19;
47705;PMS5003;33471;52.104;1.318;2023-02-24T08:16:04;24;21;
47705;PMS5003;33471;52.104;1.318;2023-02-24T08:18:31;22;21;
47705;PMS5003;33471;52.104;1.318;2023-02-24T08:20:59;25;23;
47705;PMS5003;33471;52.104;1.318;2023-02-24T08:23:26;31;26;
47705;PMS5003;33471;52.104;1.318;2023-02-24T08:25:53;22;22;
47705;PMS5003;33471;52.104;1.318;2023-02-24T08:28:20;23;21;
47705;PMS5003;33471;52.104;1.318;2023-02-24T08:30:47;22;22;
47705;PMS5003;33471;52.104;1.318;2023-02-24T08:33:17;26;26;
47705;PMS5003;33471;52.104;1.318;2023-02-24T08:35:49;16;16;
47705;PMS5003;33471;52.104;1.318;2023-02-24T08:38:19;23;22;
47705;PMS5003;33471;52.104;1.318;2023-02-24T08:40:48;24;22;
47705;PMS5003;33471;52.104;1.318;2023-02-24T08:43:19;29;29;
47705;PMS5003;33471;52.104;1.318;2023-02-24T08:45:49;30;26;
47705;PMS5003;33471;52.104;1.318;2023-02-24T08:48:20;20;20;
47705;PMS5003;33471;52.104;1.318;2023-02-24T08:50:49;28;24;
47705;PMS5003;33471;52.104;1.318;2023-02-24T08:53:16;24;23;
47705;PMS5003;33471;52.104;1.318;2023-02-24T08:55:43;21;18;
47705;PMS5003;33471;52.104;1.318;2023-02-24T08:58:11;19;19;
47705;PMS5003;33471;52.104;1.318;2023-02-24T09:00:38;19;19;
47705;PMS5003;33471;52.104;1.318;2023-02-24T09:03:05;20;20;
47705;PMS5003;33471;52.104;1.318;2023-02-24T09:05:33;21;19;
47705;PMS5003;33471;52.104;1.318;2023-02-24T09:08:01;17;17;
47705;PMS5003;33471;52.104;1.318;2023-02-24T09:10:28;16;16;
47705;PMS5003;33471;52.104;1.318;2023-02-24T09:12:55;20;18;
47705;PMS5003;33471;52.104;1.318;2023-02-24T09:15:22;18;13;
47705;PMS5003;33471;52.104;1.318;2023-02-24T09:17:49;24;22;
47705;PMS5003;33471;52.104;1.318;2023-02-24T09:20:17;15;14;
47705;PMS5003;33471;52.104;1.318;2023-02-24T09:22:45;13;12;
47705;PMS5003;33471;52.104;1.318;2023-02-24T09:25:13;18;16;
47705;PMS5003;33471;52.104;1.318;2023-02-24T09:27:40;25;24;
47705;PMS5003;33471;52.104;1.318;2023-02-24T09:30:09;15;15;
47705;PMS5003;33471;52.104;1.318;2023-02-24T09:32:37;23;21;
47705;PMS5003;33471;52.104;1.318;2023-02-24T09:35:04;20;20;
47705;PMS5003;33471;52.104;1.318;2023-02-24T09:37:31;17;17;
47705;PMS5003;33471;52.104;1.318;2023-02-24T09:39:58;14;14;
47705;PMS5003;33471;52.104;1.318;2023-02-24T09:42:27;20;19;
47705;PMS5003;33471;52.104;1.318;2023-02-24T09:45:00;20;17;
47705;PMS5003;33471;52.104;1.318;2023-02-24T09:47:32;22;21;
47705;PMS5003;33471;52.104;1.318;2023-02-24T09:50:09;19;16;
47705;PMS5003;33471;52.104;1.318;2023-02-24T09:52:47;18;17;
47705;PMS5003;33471;52.104;1.318;2023-02-24T09:55:18;20;20;
47705;PMS5003;33471;52.104;1.318;2023-02-24T09:57:59;19;18;
47705;PMS5003;33471;52.104;1.318;2023-02-24T10:00:32;18;16;
47705;PMS5003;33471;52.104;1.318;2023-02-24T10:03:03;14;14;
47705;PMS5003;33471;52.104;1.318;2023-02-24T10:05:40;17;14;
47705;PMS5003;33471;52.104;1.318;2023-02-24T10:08:13;20;20;
47705;PMS5003;33471;52.104;1.318;2023-02-24T10:10:45;19;19;
47705;PMS5003;33471;52.104;1.318;2023-02-24T10:13:13;22;19;
47705;PMS5003;33471;52.104;1.318;2023-02-24T10:15:45;23;22;
47705;PMS5003;33471;52.104;1.318;2023-02-24T10:18:20;22;17;
47705;PMS5003;33471;52.104;1.318;2023-02-24T10:20:53;16;16;
47705;PMS5003;33471;52.104;1.318;2023-02-24T10:23:27;17;16;
47705;PMS5003;33471;52.104;1.318;2023-02-24T10:26:01;17;13;
47705;PMS5003;33471;52.104;1.318;2023-02-24T10:28:38;20;18;
47705;PMS5003;33471;52.104;1.318;2023-02-24T10:31:17;18;16;
47705;PMS5003;33471;52.104;1.318;2023-02-24T10:33:55;22;22;
47705;PMS5003;33471;52.104;1.318;2023-02-24T10:36:26;24;23;
47705;PMS5003;33471;52.104;1.318;2023-02-24T10:38:56;21;21;
47705;PMS5003;33471;52.104;1.318;2023-02-24T10:41:23;17;16;
47705;PMS5003;33471;52.104;1.318;2023-02-24T10:43:52;18;15;
47705;PMS5003;33471;52.104;1.318;2023-02-24T10:46:21;26;25;
47705;PMS5003;33471;52.104;1.318;2023-02-24T10:48:51;21;16;
47705;PMS5003;33471;52.104;1.318;2023-02-24T10:51:20;21;21;
47705;PMS5003;33471;52.104;1.318;2023-02-24T10:53:49;24;22;
47705;PMS5003;33471;52.104;1.318;2023-02-24T10:56:17;18;16;
47705;PMS5003;33471;52.104;1.318;2023-02-24T10:58:45;18;18;
47705;PMS5003;33471;52.104;1.318;2023-02-24T11:01:13;13;11;
47705;PMS5003;33471;52.104;1.318;2023-02-24T11:03:47;17;17;
47705;PMS5003;33471;52.104;1.318;2023-02-24T11:06:18;16;16;
47705;PMS5003;33471;52.104;1.318;2023-02-24T11:08:55;16;14;
47705;PMS5003;33471;52.104;1.318;2023-02-24T11:11:24;12;11;
47705;PMS5003;33471;52.104;1.318;2023-02-24T11:13:59;15;13;
47705;PMS5003;33471;52.104;1.318;2023-02-24T11:16:27;13;12;
47705;PMS5003;33471;52.104;1.318;2023-02-24T11:19:05;15;15;
47705;PMS5003;33471;52.104;1.318;2023-02-24T11:21:33;12;12;
47705;PMS5003;33471;52.104;1.318;2023-02-24T11:24:00;20;20;
47705;PMS5003;33471;52.104;1.318;2023-02-24T11:26:33;12;10;
47705;PMS5003;33471;52.104;1.318;2023-02-24T11:29:06;7;7;
47705;PMS5003;33471;52.104;1.318;2023-02-24T11:31:50;11;11;
47705;PMS5003;33471;52.104;1.318;2023-02-24T11:34:31;13;10;
47705;PMS5003;33471;52.104;1.318;2023-02-24T11:37:11;15;9;
47705;PMS5003;33471;52.104;1.318;2023-02-24T11:39:51;9;9;
47705;PMS5003;33471;52.104;1.318;2023-02-24T11:42:25;13;10;
47705;PMS5003;33471;52.104;1.318;2023-02-24T11:44:58;11;10;
47705;PMS5003;33471;52.104;1.318;2023-02-24T11:47:34;11;8;
47705;PMS5003;33471;52.104;1.318;2023-02-24T11:50:16;11;10;
47705;PMS5003;33471;52.104;1.318;2023-02-24T11:52:54;10;10;
47705;PMS5003;33471;52.104;1.318;2023-02-24T11:55:27;12;11;
47705;PMS5003;33471;52.104;1.318;2023-02-24T11:57:59;10;10;
47705;PMS5003;33471;52.104;1.318;2023-02-24T12:00:33;11;11;
47705;PMS5003;33471;52.104;1.318;2023-02-24T12:03:05;8;8;
47705;PMS5003;33471;52.104;1.318;2023-02-24T12:05:40;7;7;
47705;PMS5003;33471;52.104;1.318;2023-02-24T12:08:15;10;8;
47705;PMS5003;33471;52.104;1.318;2023-02-24T12:10:51;9;9;
47705;PMS5003;33471;52.104;1.318;2023-02-24T12:13:26;10;9;
47705;PMS5003;33471;52.104;1.318;2023-02-24T12:16:01;10;10;
47705;PMS5003;33471;52.104;1.318;2023-02-24T12:18:33;11;10;
47705;PMS5003;33471;52.104;1.318;2023-02-24T12:21:03;8;8;
47705;PMS5003;33471;52.104;1.318;2023-02-24T12:23:33;7;7;
47705;PMS5003;33471;52.104;1.318;2023-02-24T12:26:07;13;12;
47705;PMS5003;33471;52.104;1.318;2023-02-24T12:28:46;11;10;
47705;PMS5003;33471;52.104;1.318;2023-02-24T12:29:34;11;9;
47705;PMS5003;33471;52.104;1.318;2023-02-24T12:32:12;10;10;
47705;PMS5003;33471;52.104;1.318;2023-02-24T12:34:50;8;7;
47705;PMS5003;33471;52.104;1.318;2023-02-24T12:37:33;13;13;
47705;PMS5003;33471;52.104;1.318;2023-02-24T12:40:21;17;14;
47705;PMS5003;33471;52.104;1.318;2023-02-24T12:42:56;7;7;
47705;PMS5003;33471;52.104;1.318;2023-02-24T12:45:35;7;7;
47705;PMS5003;33471;52.104;1.318;2023-02-24T12:48:16;13;13;
47705;PMS5003;33471;52.104;1.318;2023-02-24T12:50:53;10;9;
47705;PMS5003;33471;52.104;1.318;2023-02-24T12:53:31;4;4;
47705;PMS5003;33471;52.104;1.318;2023-02-24T12:56:11;5;5;
47705;PMS5003;33471;52.104;1.318;2023-02-24T12:58:45;3;3;
47705;PMS5003;33471;52.104;1.318;2023-02-24T13:01:17;6;4;
47705;PMS5003;33471;52.104;1.318;2023-02-24T13:03:56;9;9;
47705;PMS5003;33471;52.104;1.318;2023-02-24T13:06:40;4;4;
47705;PMS5003;33471;52.104;1.318;2023-02-24T13:09:21;7;7;
47705;PMS5003;33471;52.104;1.318;2023-02-24T13:11:55;6;5;
47705;PMS5003;33471;52.104;1.318;2023-02-24T13:14:29;4;4;
47705;PMS5003;33471;52.104;1.318;2023-02-24T13:17:04;4;4;
47705;PMS5003;33471;52.104;1.318;2023-02-24T13:19:43;7;5;
47705;PMS5003;33471;52.104;1.318;2023-02-24T13:22:20;12;10;
47705;PMS5003;33471;52.104;1.318;2023-02-24T13:24:55;6;5;
47705;PMS5003;33471;52.104;1.318;2023-02-24T13:27:25;4;4;
47705;PMS5003;33471;52.104;1.318;2023-02-24T13:29:55;4;4;
47705;PMS5003;33471;52.104;1.318;2023-02-24T13:32:25;6;5;
47705;PMS5003;33471;52.104;1.318;2023-02-24T13:34:55;15;10;
47705;PMS5003;33471;52.104;1.318;2023-02-24T13:37:27;4;4;
47705;PMS5003;33471;52.104;1.318;2023-02-24T13:39:57;3;3;
47705;PMS5003;33471;52.104;1.318;2023-02-24T13:42:26;7;5;
47705;PMS5003;33471;52.104;1.318;2023-02-24T13:45:01;3;3;
47705;PMS5003;33471;52.104;1.318;2023-02-24T13:47:35;4;4;
47705;PMS5003;33471;52.104;1.318;2023-02-24T13:50:16;7;6;
47705;PMS5003;33471;52.104;1.318;2023-02-24T13:52:49;3;2;
47705;PMS5003;33471;52.104;1.318;2023-02-24T13:55:31;4;3;
47705;PMS5003;33471;52.104;1.318;2023-02-24T13:58:16;4;3;
47705;PMS5003;33471;52.104;1.318;2023-02-24T14:00:58;4;3;
47705;PMS5003;33471;52.104;1.318;2023-02-24T14:03:31;6;6;
47705;PMS5003;33471;52.104;1.318;2023-02-24T14:05:59;5;4;
47705;PMS5003;33471;52.104;1.318;2023-02-24T14:08:39;4;4;
47705;PMS5003;33471;52.104;1.318;2023-02-24T14:11:10;2;2;
47705;PMS5003;33471;52.104;1.318;2023-02-24T14:13:43;3;2;
47705;PMS5003;33471;52.104;1.318;2023-02-24T14:16:14;1;1;
47705;PMS5003;33471;52.104;1.318;2023-02-24T14:18:51;2;2;
47705;PMS5003;33471;52.104;1.318;2023-02-24T14:21:20;2;2;
47705;PMS5003;33471;52.104;1.318;2023-02-24T14:23:57;2;1;
47705;PMS5003;33471;52.104;1.318;2023-02-24T14:26:26;2;2;
47705;PMS5003;33471;52.104;1.318;2023-02-24T14:28:56;0;0;
47705;PMS5003;33471;52.104;1.318;2023-02-24T14:31:25;1;1;
47705;PMS5003;33471;52.104;1.318;2023-02-24T14:33:55;1;1;
47705;PMS5003;33471;52.104;1.318;2023-02-24T14:36:26;2;2;
47705;PMS5003;33471;52.104;1.318;2023-02-24T14:39:00;3;1;
47705;PMS5003;33471;52.104;1.318;2023-02-24T14:41:32;2;2;
47705;PMS5003;33471;52.104;1.318;2023-02-24T14:44:04;2;2;
47705;PMS5003;33471;52.104;1.318;2023-02-24T14:46:45;3;3;
47705;PMS5003;33471;52.104;1.318;2023-02-24T14:49:16;2;2;
47705;PMS5003;33471;52.104;1.318;2023-02-24T14:51:46;5;5;
47705;PMS5003;33471;52.104;1.318;2023-02-24T14:54:18;2;2;
47705;PMS5003;33471;52.104;1.318;2023-02-24T14:56:51;3;3;
47705;PMS5003;33471;52.104;1.318;2023-02-24T14:59:20;2;2;
47705;PMS5003;33471;52.104;1.318;2023-02-24T15:01:55;2;2;
47705;PMS5003;33471;52.104;1.318;2023-02-24T15:04:25;2;2;
47705;PMS5003;33471;52.104;1.318;2023-02-24T15:06:59;2;2;
47705;PMS5003;33471;52.104;1.318;2023-02-24T15:09:33;7;7;
47705;PMS5003;33471;52.104;1.318;2023-02-24T15:12:34;4;4;
47705;PMS5003;33471;52.104;1.318;2023-02-24T15:15:16;4;3;
47705;PMS5003;33471;52.104;1.318;2023-02-24T15:17:48;1;1;
47705;PMS5003;33471;52.104;1.318;2023-02-24T15:20:27;4;3;
47705;PMS5003;33471;52.104;1.318;2023-02-24T15:22:58;1;1;
47705;PMS5003;33471;52.104;1.318;2023-02-24T15:25:27;2;2;
47705;PMS5003;33471;52.104;1.318;2023-02-24T15:27:57;1;1;
47705;PMS5003;33471;52.104;1.318;2023-02-24T15:30:30;2;2;
47705;PMS5003;33471;52.104;1.318;2023-02-24T15:33:02;1;1;
47705;PMS5003;33471;52.104;1.318;2023-02-24T15:35:33;2;2;
47705;PMS5003;33471;52.104;1.318;2023-02-24T15:38:04;6;6;
47705;PMS5003;33471;52.104;1.318;2023-02-24T15:40:31;4;2;
47705;PMS5003;33471;52.104;1.318;2023-02-24T15:42:59;2;2;
47705;PMS5003;33471;52.104;1.318;2023-02-24T15:45:35;4;4;
47705;PMS5003;33471;52.104;1.318;2023-02-24T15:48:16;3;3;
47705;PMS5003;33471;52.104;1.318;2023-02-24T15:50:46;2;2;
47705;PMS5003;33471;52.104;1.318;2023-02-24T15:53:13;5;2;
47705;PMS5003;33471;52.104;1.318;2023-02-24T15:55:41;1;1;
47705;PMS5003;33471;52.104;1.318;2023-02-24T15:58:11;10;8;
47705;PMS5003;33471;52.104;1.318;2023-02-24T16:00:41;8;8;
47705;PMS5003;33471;52.104;1.318;2023-02-24T16:03:09;3;3;
47705;PMS5003;33471;52.104;1.318;2023-02-24T16:05:37;5;5;
47705;PMS5003;33471;52.104;1.318;2023-02-24T16:08:05;2;2;
47705;PMS5003;33471;52.104;1.318;2023-02-24T16:10:37;3;2;
47705;PMS5003;33471;52.104;1.318;2023-02-24T16:13:07;1;1;
47705;PMS5003;33471;52.104;1.318;2023-02-24T16:15:41;2;2;
47705;PMS5003;33471;52.104;1.318;2023-02-24T16:18:11;2;2;
47705;PMS5003;33471;52.104;1.318;2023-02-24T16:20:43;5;5;
47705;PMS5003;33471;52.104;1.318;2023-02-24T16:23:11;2;2;
47705;PMS5003;33471;52.104;1.318;2023-02-24T16:25:39;3;3;
47705;PMS5003;33471;52.104;1.318;2023-02-24T16:28:09;4;4;
47705;PMS5003;33471;52.104;1.318;2023-02-24T16:30:39;1;1;
47705;PMS5003;33471;52.104;1.318;2023-02-24T16:33:08;1;1;
47705;PMS5003;33471;52.104;1.318;2023-02-24T16:35:38;1;1;
47705;PMS5003;33471;52.104;1.318;2023-02-24T16:38:08;2;2;
47705;PMS5003;33471;52.104;1.318;2023-02-24T16:40:37;2;2;
47705;PMS5003;33471;52.104;1.318;2023-02-24T16:43:04;2;2;
47705;PMS5003;33471;52.104;1.318;2023-02-24T16:45:31;1;1;
47705;PMS5003;33471;52.104;1.318;2023-02-24T16:47:59;27;26;